createdAt,value
2016-11-06T00:00:11.560Z,0
2016-11-06T00:01:11.573Z,0
2016-11-06T00:02:11.594Z,0
2016-11-06T00:03:11.603Z,0
2016-11-06T00:04:11.656Z,0
2016-11-06T00:05:11.630Z,0
2016-11-06T00:06:11.647Z,0
2016-11-06T00:07:11.700Z,0
2016-11-06T00:08:11.690Z,0
2016-11-06T00:09:11.705Z,0
2016-11-06T00:10:11.717Z,0
2016-11-06T00:11:11.729Z,0
2016-11-06T00:12:11.780Z,0
2016-11-06T00:13:11.795Z,0
2016-11-06T00:14:11.770Z,0
2016-11-06T00:15:11.793Z,0
2016-11-06T00:16:11.810Z,0
2016-11-06T00:17:11.814Z,0
2016-11-06T00:18:11.837Z,0
2016-11-06T00:19:11.877Z,0
2016-11-06T00:20:11.872Z,0
2016-11-06T00:21:11.896Z,0
2016-11-06T00:22:11.898Z,0
2016-11-06T00:23:11.904Z,0
2016-11-06T00:24:12.246Z,0
2016-11-06T00:25:12.256Z,0
2016-11-06T00:26:12.284Z,0
2016-11-06T00:27:11.973Z,0
2016-11-06T00:28:11.994Z,0
2016-11-06T00:29:12.003Z,0
2016-11-06T00:30:12.021Z,0
2016-11-06T00:31:12.033Z,0
2016-11-06T00:32:12.370Z,0
2016-11-06T00:33:12.062Z,0
2016-11-06T00:34:12.076Z,0
2016-11-06T00:35:12.089Z,0
2016-11-06T00:36:12.112Z,0
2016-11-06T00:37:12.121Z,0
2016-11-06T00:38:12.139Z,0
2016-11-06T00:39:12.155Z,0
2016-11-06T00:40:12.172Z,0
2016-11-06T00:41:12.186Z,0
2016-11-06T00:42:12.198Z,0
2016-11-06T00:43:12.216Z,0
2016-11-06T00:44:12.237Z,0
2016-11-06T00:45:12.249Z,0
2016-11-06T00:46:12.313Z,0
2016-11-06T00:47:12.278Z,0
2016-11-06T00:48:12.294Z,0
2016-11-06T00:49:12.310Z,0
2016-11-06T00:50:12.327Z,0
2016-11-06T00:51:12.519Z,0
2016-11-06T00:52:12.349Z,0
2016-11-06T00:53:12.367Z,0
2016-11-06T00:54:12.501Z,0
2016-11-06T00:55:12.511Z,0
2016-11-06T00:56:12.503Z,0
2016-11-06T00:57:12.653Z,0
2016-11-06T00:58:12.662Z,0
2016-11-06T00:59:12.678Z,0
2016-11-06T01:00:12.685Z,0
2016-11-06T01:01:12.687Z,0
2016-11-06T01:02:12.698Z,0
2016-11-06T01:03:12.703Z,0
2016-11-06T01:04:12.711Z,0
2016-11-06T01:05:12.719Z,0
2016-11-06T01:06:12.928Z,0
2016-11-06T01:07:12.729Z,0
2016-11-06T01:08:12.734Z,0
2016-11-06T01:09:12.783Z,0
2016-11-06T01:10:12.783Z,0
2016-11-06T01:11:12.791Z,0
2016-11-06T01:12:12.799Z,0
2016-11-06T01:13:12.809Z,0
2016-11-06T01:14:12.819Z,0
2016-11-06T01:15:12.828Z,0
2016-11-06T01:16:12.828Z,0
2016-11-06T01:17:12.833Z,0
2016-11-06T01:18:12.842Z,0
2016-11-06T01:19:13.079Z,0
2016-11-06T01:20:12.859Z,0
2016-11-06T01:21:12.918Z,0
2016-11-06T01:22:12.829Z,0
2016-11-06T01:23:12.837Z,0
2016-11-06T01:24:12.847Z,0
2016-11-06T01:25:13.196Z,0
2016-11-06T01:26:12.872Z,0
2016-11-06T01:27:12.885Z,0
2016-11-06T01:28:12.921Z,0
2016-11-06T01:29:12.926Z,0
2016-11-06T01:30:12.930Z,0
2016-11-06T01:31:12.953Z,0
2016-11-06T01:32:13.003Z,0
2016-11-06T01:33:12.976Z,0
2016-11-06T01:34:12.998Z,0
2016-11-06T01:35:13.012Z,0
2016-11-06T01:36:13.110Z,0
2016-11-06T01:37:13.124Z,0
2016-11-06T01:38:13.124Z,0
2016-11-06T01:39:13.129Z,0
2016-11-06T01:40:13.173Z,0
2016-11-06T01:41:13.152Z,0
2016-11-06T01:42:13.162Z,0
2016-11-06T01:43:13.167Z,0
2016-11-06T01:44:13.172Z,0
2016-11-06T01:45:13.171Z,0
2016-11-06T01:46:13.179Z,0
2016-11-06T01:47:19.458Z,0
2016-11-06T01:48:13.212Z,0
2016-11-06T01:49:13.219Z,0
2016-11-06T01:50:13.236Z,0
2016-11-06T01:51:13.259Z,0
2016-11-06T01:52:13.273Z,0
2016-11-06T01:53:13.283Z,0
2016-11-06T01:54:13.308Z,0
2016-11-06T01:55:13.623Z,0
2016-11-06T01:56:13.332Z,0
2016-11-06T01:57:13.556Z,0
2016-11-06T01:58:13.365Z,0
2016-11-06T01:59:13.373Z,0
2016-11-06T02:00:13.386Z,0
2016-11-06T02:01:13.396Z,0
2016-11-06T02:02:13.471Z,0
2016-11-06T02:03:13.435Z,0
2016-11-06T02:04:13.451Z,0
2016-11-06T02:05:13.463Z,0
2016-11-06T02:06:13.486Z,0
2016-11-06T02:07:13.497Z,0
2016-11-06T02:08:13.511Z,0
2016-11-06T02:09:13.526Z,0
2016-11-06T02:10:13.577Z,0
2016-11-06T02:11:13.562Z,0
2016-11-06T02:12:13.582Z,0
2016-11-06T02:13:13.590Z,0
2016-11-06T02:14:13.604Z,0
2016-11-06T02:15:13.623Z,0
2016-11-06T02:16:13.635Z,0
2016-11-06T02:17:13.641Z,0
2016-11-06T02:18:13.992Z,0
2016-11-06T02:19:13.673Z,0
2016-11-06T02:20:13.697Z,0
2016-11-06T02:21:13.709Z,0
2016-11-06T02:22:13.736Z,0
2016-11-06T02:23:13.738Z,0
2016-11-06T02:24:13.772Z,0
2016-11-06T02:25:13.771Z,0
2016-11-06T02:26:14.110Z,0
2016-11-06T02:27:13.814Z,0
2016-11-06T02:28:13.819Z,0
2016-11-06T02:29:13.845Z,0
2016-11-06T02:30:13.860Z,0
2016-11-06T02:31:13.863Z,0
2016-11-06T02:32:13.892Z,0
2016-11-06T02:33:13.895Z,0
2016-11-06T02:34:13.904Z,0
2016-11-06T02:35:13.919Z,0
2016-11-06T02:36:13.942Z,0
2016-11-06T02:37:13.996Z,0
2016-11-06T02:38:13.974Z,0
2016-11-06T02:39:13.980Z,0
2016-11-06T02:40:14.011Z,0
2016-11-06T02:41:14.014Z,0
2016-11-06T02:42:14.074Z,0
2016-11-06T02:43:14.045Z,0
2016-11-06T02:44:14.073Z,0
2016-11-06T02:45:14.073Z,0
2016-11-06T02:46:14.095Z,0
2016-11-06T02:47:14.110Z,0
2016-11-06T02:48:14.122Z,0
2016-11-06T02:49:14.138Z,0
2016-11-06T02:50:14.156Z,0
2016-11-06T02:51:14.162Z,0
2016-11-06T02:52:14.510Z,0
2016-11-06T02:53:14.201Z,0
2016-11-06T02:54:14.212Z,0
2016-11-06T02:55:14.221Z,0
2016-11-06T02:56:14.239Z,0
2016-11-06T02:57:14.251Z,0
2016-11-06T02:58:14.279Z,0
2016-11-06T02:59:14.278Z,0
2016-11-06T03:00:14.613Z,0
2016-11-06T03:01:14.322Z,0
2016-11-06T03:02:14.334Z,0
2016-11-06T03:03:14.357Z,0
2016-11-06T03:04:14.367Z,0
2016-11-06T03:05:14.374Z,0
2016-11-06T03:06:14.396Z,0
2016-11-06T03:07:14.407Z,0
2016-11-06T03:08:14.429Z,0
2016-11-06T03:09:14.440Z,0
2016-11-06T03:10:14.452Z,0
2016-11-06T03:11:14.466Z,0
2016-11-06T03:12:14.479Z,0
2016-11-06T03:13:14.500Z,0
2016-11-06T03:14:14.516Z,0
2016-11-06T03:15:14.537Z,0
2016-11-06T03:16:14.550Z,0
2016-11-06T03:17:14.555Z,0
2016-11-06T03:18:14.570Z,0
2016-11-06T03:19:14.619Z,0
2016-11-06T03:20:14.618Z,0
2016-11-06T03:21:14.618Z,0
2016-11-06T03:22:14.759Z,0
2016-11-06T03:23:14.770Z,0
2016-11-06T03:24:14.756Z,0
2016-11-06T03:25:14.768Z,0
2016-11-06T03:26:14.811Z,0
2016-11-06T03:27:14.909Z,0
2016-11-06T03:28:15.064Z,0
2016-11-06T03:29:14.917Z,0
2016-11-06T03:30:14.926Z,0
2016-11-06T03:31:14.933Z,0
2016-11-06T03:32:14.970Z,0
2016-11-06T03:33:15.079Z,0
2016-11-06T03:34:14.962Z,0
2016-11-06T03:35:14.956Z,0
2016-11-06T03:36:14.975Z,0
2016-11-06T03:37:14.982Z,0
2016-11-06T03:38:15.162Z,0
2016-11-06T03:39:14.999Z,0
2016-11-06T03:40:15.035Z,0
2016-11-06T03:41:15.048Z,0
2016-11-06T03:42:15.046Z,0
2016-11-06T03:43:15.120Z,0
2016-11-06T03:44:15.058Z,0
2016-11-06T03:45:15.067Z,0
2016-11-06T03:46:15.078Z,0
2016-11-06T03:47:15.104Z,0
2016-11-06T03:48:15.442Z,0
2016-11-06T03:49:15.114Z,0
2016-11-06T03:50:15.133Z,0
2016-11-06T03:51:15.153Z,0
2016-11-06T03:52:15.132Z,0
2016-11-06T03:53:15.199Z,0
2016-11-06T03:54:15.154Z,0
2016-11-06T03:55:15.161Z,0
2016-11-06T03:56:15.172Z,0
2016-11-06T03:57:15.281Z,0
2016-11-06T03:58:15.175Z,0
2016-11-06T03:59:15.193Z,0
2016-11-06T04:00:15.207Z,0
2016-11-06T04:01:15.217Z,0
2016-11-06T04:02:15.233Z,0
2016-11-06T04:03:15.284Z,0
2016-11-06T04:04:15.571Z,0
2016-11-06T04:05:15.278Z,0
2016-11-06T04:06:15.292Z,0
2016-11-06T04:07:15.305Z,0
2016-11-06T04:08:15.344Z,0
2016-11-06T04:09:15.333Z,0
2016-11-06T04:10:15.358Z,0
2016-11-06T04:11:15.518Z,0
2016-11-06T04:12:15.381Z,0
2016-11-06T04:13:15.390Z,0
2016-11-06T04:14:15.409Z,0
2016-11-06T04:15:15.737Z,0
2016-11-06T04:16:15.610Z,0
2016-11-06T04:17:15.455Z,0
2016-11-06T04:18:15.669Z,0
2016-11-06T04:19:15.487Z,0
2016-11-06T04:20:15.500Z,0
2016-11-06T04:21:15.513Z,0
2016-11-06T04:22:15.526Z,0
2016-11-06T04:23:15.539Z,0
2016-11-06T04:24:15.557Z,0
2016-11-06T04:25:15.576Z,0
2016-11-06T04:26:15.589Z,0
2016-11-06T04:27:15.599Z,0
2016-11-06T04:28:15.617Z,0
2016-11-06T04:29:15.634Z,0
2016-11-06T04:30:15.645Z,0
2016-11-06T04:31:15.662Z,0
2016-11-06T04:32:15.685Z,0
2016-11-06T04:33:15.693Z,0
2016-11-06T04:34:15.715Z,0
2016-11-06T04:35:15.719Z,0
2016-11-06T04:36:16.178Z,0
2016-11-06T04:37:15.755Z,0
2016-11-06T04:38:15.772Z,0
2016-11-06T04:39:15.785Z,0
2016-11-06T04:40:15.795Z,0
2016-11-06T04:41:15.809Z,0
2016-11-06T04:42:15.832Z,0
2016-11-06T04:43:15.834Z,0
2016-11-06T04:44:15.869Z,0
2016-11-06T04:45:15.866Z,0
2016-11-06T04:46:16.306Z,0
2016-11-06T04:47:15.900Z,0
2016-11-06T04:48:15.909Z,0
2016-11-06T04:49:15.925Z,0
2016-11-06T04:50:15.944Z,0
2016-11-06T04:51:15.963Z,0
2016-11-06T04:52:15.970Z,0
2016-11-06T04:53:15.986Z,0
2016-11-06T04:54:16.381Z,0
2016-11-06T04:55:16.129Z,0
2016-11-06T04:56:16.138Z,0
2016-11-06T04:57:16.138Z,0
2016-11-06T04:58:16.144Z,0
2016-11-06T04:59:16.156Z,0
2016-11-06T05:00:16.164Z,0
2016-11-06T05:01:16.172Z,0
2016-11-06T05:02:16.180Z,0
2016-11-06T05:03:16.179Z,0
2016-11-06T05:04:16.188Z,0
2016-11-06T05:05:16.198Z,0
2016-11-06T05:06:16.206Z,0
2016-11-06T05:07:16.215Z,0
2016-11-06T05:08:16.215Z,0
2016-11-06T05:09:16.281Z,0
2016-11-06T05:10:16.290Z,0
2016-11-06T05:11:16.298Z,0
2016-11-06T05:12:16.297Z,0
2016-11-06T05:13:16.306Z,0
2016-11-06T05:14:16.316Z,0
2016-11-06T05:15:16.324Z,0
2016-11-06T05:16:16.332Z,0
2016-11-06T05:17:16.334Z,0
2016-11-06T05:18:16.456Z,0
2016-11-06T05:19:16.467Z,0
2016-11-06T05:20:16.474Z,0
2016-11-06T05:21:16.483Z,0
2016-11-06T05:22:16.740Z,0
2016-11-06T05:23:16.427Z,0
2016-11-06T05:24:16.456Z,0
2016-11-06T05:25:16.459Z,0
2016-11-06T05:26:16.471Z,0
2016-11-06T05:27:16.486Z,0
2016-11-06T05:28:16.548Z,0
2016-11-06T05:29:16.519Z,0
2016-11-06T05:30:16.535Z,0
2016-11-06T05:31:16.554Z,0
2016-11-06T05:32:16.562Z,0
2016-11-06T05:33:16.576Z,0
2016-11-06T05:34:16.623Z,0
2016-11-06T05:35:16.606Z,0
2016-11-06T05:36:16.625Z,0
2016-11-06T05:37:16.634Z,0
2016-11-06T05:38:16.649Z,0
2016-11-06T05:39:16.660Z,0
2016-11-06T05:40:16.680Z,0
2016-11-06T05:41:16.693Z,0
2016-11-06T05:42:17.024Z,0
2016-11-06T05:43:17.388Z,0
2016-11-06T05:44:16.740Z,0
2016-11-06T05:45:16.753Z,0
2016-11-06T05:46:16.781Z,0
2016-11-06T05:47:16.785Z,0
2016-11-06T05:48:16.805Z,0
2016-11-06T05:49:16.805Z,0
2016-11-06T05:50:16.836Z,0
2016-11-06T05:51:16.837Z,0
2016-11-06T05:52:16.866Z,0
2016-11-06T05:53:16.863Z,0
2016-11-06T05:54:16.890Z,0
2016-11-06T05:55:16.895Z,0
2016-11-06T05:56:16.915Z,0
2016-11-06T05:57:16.934Z,0
2016-11-06T05:58:16.947Z,0
2016-11-06T05:59:16.949Z,0
2016-11-06T06:00:16.973Z,0
2016-11-06T06:01:16.976Z,0
2016-11-06T06:02:17.007Z,0
2016-11-06T06:03:17.011Z,0
2016-11-06T06:04:17.041Z,0
2016-11-06T06:05:17.043Z,0
2016-11-06T06:06:17.072Z,0
2016-11-06T06:07:17.077Z,0
2016-11-06T06:08:17.396Z,0
2016-11-06T06:09:17.205Z,0
2016-11-06T06:10:17.214Z,0
2016-11-06T06:11:17.164Z,0
2016-11-06T06:12:17.222Z,0
2016-11-06T06:13:17.252Z,0
2016-11-06T06:14:17.238Z,0
2016-11-06T06:15:17.247Z,0
2016-11-06T06:16:17.254Z,0
2016-11-06T06:17:17.253Z,0
2016-11-06T06:18:17.264Z,0
2016-11-06T06:19:17.271Z,0
2016-11-06T06:20:17.281Z,0
2016-11-06T06:21:17.328Z,0
2016-11-06T06:22:17.329Z,0
2016-11-06T06:23:17.335Z,0
2016-11-06T06:24:17.345Z,0
2016-11-06T06:25:17.352Z,0
2016-11-06T06:26:17.364Z,0
2016-11-06T06:27:17.361Z,0
2016-11-06T06:28:17.697Z,0
2016-11-06T06:29:17.384Z,0
2016-11-06T06:30:17.409Z,0
2016-11-06T06:31:17.418Z,0
2016-11-06T06:32:17.434Z,0
2016-11-06T06:33:17.449Z,0
2016-11-06T06:34:17.475Z,0
2016-11-06T06:35:17.472Z,0
2016-11-06T06:36:17.517Z,0
2016-11-06T06:37:17.515Z,0
2016-11-06T06:38:17.529Z,0
2016-11-06T06:39:17.537Z,0
2016-11-06T06:40:17.544Z,0
2016-11-06T06:41:17.560Z,0
2016-11-06T06:42:17.579Z,0
2016-11-06T06:43:17.590Z,0
2016-11-06T06:44:17.604Z,0
2016-11-06T06:45:17.629Z,0
2016-11-06T06:46:17.642Z,0
2016-11-06T06:47:17.704Z,0
2016-11-06T06:48:17.673Z,0
2016-11-06T06:49:17.681Z,0
2016-11-06T06:50:17.695Z,0
2016-11-06T06:51:17.720Z,0
2016-11-06T06:52:17.723Z,0
2016-11-06T06:53:17.744Z,0
2016-11-06T06:54:17.766Z,0
2016-11-06T06:55:17.772Z,0
2016-11-06T06:56:17.796Z,0
2016-11-06T06:57:17.795Z,0
2016-11-06T06:58:17.813Z,0
2016-11-06T06:59:17.828Z,0
2016-11-06T07:00:17.840Z,0
2016-11-06T07:01:17.853Z,0
2016-11-06T07:02:17.996Z,0
2016-11-06T07:03:18.004Z,0
2016-11-06T07:04:18.034Z,0
2016-11-06T07:05:18.017Z,0
2016-11-06T07:06:18.025Z,0
2016-11-06T07:07:18.035Z,5
2016-11-06T07:08:18.184Z,5
2016-11-06T07:09:18.070Z,5
2016-11-06T07:10:17.981Z,5
2016-11-06T07:11:18.111Z,5
2016-11-06T07:12:18.154Z,5
2016-11-06T07:13:18.162Z,5
2016-11-06T07:14:18.140Z,5
2016-11-06T07:15:18.171Z,5
2016-11-06T07:16:18.154Z,5
2016-11-06T07:17:18.395Z,5
2016-11-06T07:18:18.426Z,5
2016-11-06T07:19:18.197Z,5
2016-11-06T07:20:18.208Z,5
2016-11-06T07:21:18.211Z,5
2016-11-06T07:22:18.226Z,5
2016-11-06T07:23:18.233Z,5
2016-11-06T07:24:18.267Z,5
2016-11-06T07:25:18.276Z,5
2016-11-06T07:26:18.287Z,5
2016-11-06T07:27:18.287Z,5
2016-11-06T07:28:18.293Z,5
2016-11-06T07:29:18.300Z,5
2016-11-06T07:30:18.308Z,5
2016-11-06T07:31:18.323Z,5
2016-11-06T07:32:18.328Z,5
2016-11-06T07:33:18.363Z,5
2016-11-06T07:34:18.346Z,5
2016-11-06T07:35:18.337Z,5
2016-11-06T07:36:18.669Z,5
2016-11-06T07:37:18.368Z,5
2016-11-06T07:38:18.388Z,5
2016-11-06T07:39:18.425Z,5
2016-11-06T07:40:18.416Z,5
2016-11-06T07:41:18.426Z,5
2016-11-06T07:42:18.441Z,10
2016-11-06T07:43:18.508Z,10
2016-11-06T07:44:18.485Z,10
2016-11-06T07:45:18.484Z,10
2016-11-06T07:46:18.501Z,10
2016-11-06T07:47:18.515Z,10
2016-11-06T07:48:18.537Z,5
2016-11-06T07:49:18.542Z,5
2016-11-06T07:50:18.562Z,5
2016-11-06T07:51:18.569Z,5
2016-11-06T07:52:18.593Z,5
2016-11-06T07:53:18.983Z,5
2016-11-06T07:54:18.755Z,5
2016-11-06T07:55:18.641Z,5
2016-11-06T07:56:18.651Z,5
2016-11-06T07:57:18.680Z,5
2016-11-06T07:58:18.670Z,5
2016-11-06T07:59:18.790Z,10
2016-11-06T08:00:18.823Z,10
2016-11-06T08:01:18.807Z,5
2016-11-06T08:02:18.836Z,5
2016-11-06T08:03:18.769Z,5
2016-11-06T08:04:18.768Z,10
2016-11-06T08:05:18.771Z,10
2016-11-06T08:06:18.792Z,10
2016-11-06T08:07:18.843Z,10
2016-11-06T08:08:18.816Z,10
2016-11-06T08:09:18.841Z,10
2016-11-06T08:10:18.858Z,10
2016-11-06T08:11:18.884Z,10
2016-11-06T08:12:18.912Z,10
2016-11-06T08:13:18.900Z,10
2016-11-06T08:14:18.940Z,10
2016-11-06T08:15:18.924Z,10
2016-11-06T08:16:19.381Z,15
2016-11-06T08:17:18.952Z,15
2016-11-06T08:18:19.600Z,15
2016-11-06T08:19:18.981Z,10
2016-11-06T08:20:18.998Z,10
2016-11-06T08:21:19.013Z,10
2016-11-06T08:22:19.031Z,10
2016-11-06T08:23:19.037Z,10
2016-11-06T08:24:19.067Z,10
2016-11-06T08:25:19.072Z,10
2016-11-06T08:26:19.076Z,10
2016-11-06T08:27:19.102Z,10
2016-11-06T08:28:19.120Z,10
2016-11-06T08:29:19.133Z,10
2016-11-06T08:30:19.143Z,10
2016-11-06T08:31:19.319Z,10
2016-11-06T08:32:19.622Z,10
2016-11-06T08:33:19.598Z,10
2016-11-06T08:34:19.426Z,10
2016-11-06T08:35:19.441Z,10
2016-11-06T08:36:19.444Z,10
2016-11-06T08:37:19.452Z,10
2016-11-06T08:38:19.459Z,10
2016-11-06T08:39:19.497Z,10
2016-11-06T08:40:19.386Z,10
2016-11-06T08:41:19.511Z,10
2016-11-06T08:42:19.522Z,10
2016-11-06T08:43:19.574Z,10
2016-11-06T08:44:19.543Z,10
2016-11-06T08:45:19.552Z,10
2016-11-06T08:46:19.562Z,10
2016-11-06T08:47:19.423Z,10
2016-11-06T08:48:19.441Z,10
2016-11-06T08:49:19.454Z,10
2016-11-06T08:50:19.443Z,10
2016-11-06T08:51:19.456Z,10
2016-11-06T08:52:19.472Z,10
2016-11-06T08:53:19.483Z,10
2016-11-06T08:54:19.494Z,10
2016-11-06T08:55:19.507Z,10
2016-11-06T08:56:19.521Z,10
2016-11-06T08:57:19.541Z,10
2016-11-06T08:58:19.554Z,10
2016-11-06T08:59:19.559Z,10
2016-11-06T09:00:19.583Z,5
2016-11-06T09:01:19.604Z,10
2016-11-06T09:02:19.614Z,10
2016-11-06T09:03:19.638Z,10
2016-11-06T09:04:19.644Z,10
2016-11-06T09:05:19.661Z,10
2016-11-06T09:06:19.675Z,10
2016-11-06T09:07:19.700Z,10
2016-11-06T09:08:19.714Z,15
2016-11-06T09:09:19.732Z,15
2016-11-06T09:10:19.738Z,15
2016-11-06T09:11:19.800Z,15
2016-11-06T09:12:19.770Z,15
2016-11-06T09:13:19.794Z,15
2016-11-06T09:14:19.802Z,15
2016-11-06T09:15:19.969Z,10
2016-11-06T09:16:19.830Z,10
2016-11-06T09:17:19.840Z,10
2016-11-06T09:18:19.864Z,10
2016-11-06T09:19:19.905Z,15
2016-11-06T09:20:19.882Z,10
2016-11-06T09:21:19.909Z,10
2016-11-06T09:22:19.920Z,15
2016-11-06T09:23:19.935Z,15
2016-11-06T09:24:19.957Z,15
2016-11-06T09:25:19.965Z,15
2016-11-06T09:26:19.977Z,15
2016-11-06T09:27:20.002Z,15
2016-11-06T09:28:20.010Z,20
2016-11-06T09:29:20.022Z,25
2016-11-06T09:30:20.036Z,20
2016-11-06T09:31:20.060Z,20
2016-11-06T09:32:20.070Z,15
2016-11-06T09:33:20.130Z,15
2016-11-06T09:34:20.096Z,15
2016-11-06T09:35:20.115Z,10
2016-11-06T09:36:20.129Z,10
2016-11-06T09:37:20.151Z,10
2016-11-06T09:38:20.163Z,10
2016-11-06T09:39:20.177Z,10
2016-11-06T09:40:20.243Z,10
2016-11-06T09:41:20.209Z,10
2016-11-06T09:42:20.222Z,10
2016-11-06T09:43:20.244Z,10
2016-11-06T09:44:20.257Z,10
2016-11-06T09:45:20.269Z,10
2016-11-06T09:46:20.286Z,10
2016-11-06T09:47:20.302Z,10
2016-11-06T09:48:20.366Z,10
2016-11-06T09:49:20.331Z,10
2016-11-06T09:50:20.353Z,10
2016-11-06T09:51:20.370Z,10
2016-11-06T09:52:20.385Z,10
2016-11-06T09:53:20.415Z,10
2016-11-06T09:54:20.402Z,10
2016-11-06T09:55:20.425Z,10
2016-11-06T09:56:20.450Z,10
2016-11-06T09:57:20.452Z,10
2016-11-06T09:58:20.468Z,10
2016-11-06T09:59:20.489Z,10
2016-11-06T10:00:20.493Z,10
2016-11-06T10:01:20.513Z,10
2016-11-06T10:02:20.534Z,10
2016-11-06T10:03:20.547Z,10
2016-11-06T10:04:20.556Z,10
2016-11-06T10:05:20.582Z,10
2016-11-06T10:06:20.587Z,10
2016-11-06T10:07:20.606Z,10
2016-11-06T10:08:20.666Z,10
2016-11-06T10:09:20.641Z,10
2016-11-06T10:10:20.651Z,10
2016-11-06T10:11:20.676Z,15
2016-11-06T10:12:20.690Z,15
2016-11-06T10:13:20.704Z,15
2016-11-06T10:14:20.733Z,15
2016-11-06T10:15:20.735Z,15
2016-11-06T10:16:20.750Z,15
2016-11-06T10:17:20.776Z,15
2016-11-06T10:18:20.781Z,15
2016-11-06T10:19:20.826Z,15
2016-11-06T10:20:20.820Z,15
2016-11-06T10:21:20.822Z,15
2016-11-06T10:22:20.844Z,15
2016-11-06T10:23:20.886Z,15
2016-11-06T10:24:21.231Z,15
2016-11-06T10:25:20.881Z,15
2016-11-06T10:26:20.904Z,15
2016-11-06T10:27:20.914Z,15
2016-11-06T10:28:20.931Z,20
2016-11-06T10:29:20.950Z,20
2016-11-06T10:30:20.965Z,20
2016-11-06T10:31:20.990Z,25
2016-11-06T10:32:21.106Z,25
2016-11-06T10:33:21.100Z,20
2016-11-06T10:34:21.123Z,20
2016-11-06T10:35:21.152Z,15
2016-11-06T10:36:21.155Z,15
2016-11-06T10:37:21.300Z,20
2016-11-06T10:38:21.408Z,20
2016-11-06T10:39:21.106Z,20
2016-11-06T10:40:21.123Z,20
2016-11-06T10:41:21.140Z,20
2016-11-06T10:42:21.152Z,20
2016-11-06T10:43:21.170Z,20
2016-11-06T10:44:21.184Z,15
2016-11-06T10:45:21.201Z,15
2016-11-06T10:46:21.223Z,15
2016-11-06T10:47:21.237Z,15
2016-11-06T10:48:21.248Z,20
2016-11-06T10:49:21.264Z,20
2016-11-06T10:50:21.277Z,20
2016-11-06T10:51:21.299Z,25
2016-11-06T10:52:21.321Z,25
2016-11-06T10:53:21.331Z,25
2016-11-06T10:54:21.337Z,20
2016-11-06T10:55:21.368Z,20
2016-11-06T10:56:21.379Z,20
2016-11-06T10:57:21.429Z,20
2016-11-06T10:58:21.409Z,20
2016-11-06T10:59:21.429Z,15
2016-11-06T11:00:21.448Z,15
2016-11-06T11:01:21.471Z,15
2016-11-06T11:02:21.478Z,15
2016-11-06T11:03:21.488Z,15
2016-11-06T11:04:21.498Z,15
2016-11-06T11:05:21.523Z,15
2016-11-06T11:06:21.847Z,15
2016-11-06T11:07:21.546Z,15
2016-11-06T11:08:21.606Z,20
2016-11-06T11:09:21.579Z,25
2016-11-06T11:10:21.601Z,25
2016-11-06T11:11:21.653Z,30
2016-11-06T11:12:21.663Z,30
2016-11-06T11:13:21.650Z,30
2016-11-06T11:14:21.673Z,35
2016-11-06T11:15:21.689Z,30
2016-11-06T11:16:21.697Z,30
2016-11-06T11:17:21.715Z,25
2016-11-06T11:18:21.735Z,20
2016-11-06T11:19:21.751Z,20
2016-11-06T11:20:21.764Z,15
2016-11-06T11:21:21.775Z,15
2016-11-06T11:22:21.801Z,10
2016-11-06T11:23:21.809Z,10
2016-11-06T11:24:21.871Z,15
2016-11-06T11:25:21.851Z,15
2016-11-06T11:26:22.178Z,20
2016-11-06T11:27:21.879Z,20
2016-11-06T11:28:22.012Z,25
2016-11-06T11:29:22.030Z,20
2016-11-06T11:30:22.019Z,15
2016-11-06T11:31:22.034Z,15
2016-11-06T11:32:22.189Z,15
2016-11-06T11:33:22.178Z,15
2016-11-06T11:34:22.221Z,15
2016-11-06T11:35:22.216Z,15
2016-11-06T11:36:22.238Z,20
2016-11-06T11:37:22.226Z,20
2016-11-06T11:38:22.372Z,15
2016-11-06T11:39:22.280Z,15
2016-11-06T11:40:22.279Z,25
2016-11-06T11:41:22.287Z,20
2016-11-06T11:42:22.302Z,20
2016-11-06T11:43:22.247Z,20
2016-11-06T11:44:22.322Z,20
2016-11-06T11:45:22.319Z,20
2016-11-06T11:46:22.331Z,25
2016-11-06T11:47:22.348Z,25
2016-11-06T11:48:22.408Z,25
2016-11-06T11:49:22.353Z,20
2016-11-06T11:50:22.420Z,20
2016-11-06T11:51:22.365Z,25
2016-11-06T11:52:22.336Z,25
2016-11-06T11:53:22.359Z,25
2016-11-06T11:54:22.672Z,30
2016-11-06T11:55:22.359Z,40
2016-11-06T11:56:22.358Z,35
2016-11-06T11:57:22.374Z,35
2016-11-06T11:58:22.433Z,30
2016-11-06T11:59:22.416Z,30
2016-11-06T12:00:22.418Z,25
2016-11-06T12:01:22.441Z,30
2016-11-06T12:02:22.545Z,35
2016-11-06T12:03:22.482Z,30
2016-11-06T12:04:22.550Z,40
2016-11-06T12:05:22.512Z,45
2016-11-06T12:06:22.554Z,45
2016-11-06T12:07:22.533Z,45
2016-11-06T12:08:22.557Z,45
2016-11-06T12:09:22.584Z,30
2016-11-06T12:10:22.587Z,30
2016-11-06T12:11:22.607Z,25
2016-11-06T12:12:22.625Z,20
2016-11-06T12:13:22.649Z,15
2016-11-06T12:14:22.654Z,10
2016-11-06T12:15:22.675Z,10
2016-11-06T12:16:22.699Z,10
2016-11-06T12:17:22.706Z,10
2016-11-06T12:18:23.042Z,10
2016-11-06T12:19:22.743Z,10
2016-11-06T12:20:22.752Z,15
2016-11-06T12:21:22.774Z,20
2016-11-06T12:22:22.798Z,25
2016-11-06T12:23:22.810Z,25
2016-11-06T12:24:22.827Z,25
2016-11-06T12:25:22.847Z,25
2016-11-06T12:26:22.861Z,25
2016-11-06T12:27:22.880Z,25
2016-11-06T12:28:22.892Z,20
2016-11-06T12:29:22.952Z,15
2016-11-06T12:30:22.928Z,15
2016-11-06T12:31:22.989Z,15
2016-11-06T12:32:22.996Z,10
2016-11-06T12:33:22.977Z,5
2016-11-06T12:34:22.995Z,5
2016-11-06T12:35:23.026Z,5
2016-11-06T12:36:23.028Z,5
2016-11-06T12:37:23.043Z,10
2016-11-06T12:38:23.103Z,10
2016-11-06T12:39:23.075Z,10
2016-11-06T12:40:23.096Z,10
2016-11-06T12:41:23.115Z,5
2016-11-06T12:42:23.130Z,5
2016-11-06T12:43:23.159Z,10
2016-11-06T12:44:23.162Z,10
2016-11-06T12:45:23.193Z,15
2016-11-06T12:46:23.201Z,20
2016-11-06T12:47:23.224Z,15
2016-11-06T12:48:23.244Z,10
2016-11-06T12:49:23.251Z,10
2016-11-06T12:50:23.271Z,5
2016-11-06T12:51:23.285Z,5
2016-11-06T12:52:23.306Z,5
2016-11-06T12:53:23.316Z,5
2016-11-06T12:54:23.344Z,5
2016-11-06T12:55:23.357Z,5
2016-11-06T12:56:23.372Z,5
2016-11-06T12:57:23.393Z,5
2016-11-06T12:58:23.405Z,5
2016-11-06T12:59:23.432Z,5
2016-11-06T13:00:23.443Z,5
2016-11-06T13:01:23.470Z,5
2016-11-06T13:02:23.597Z,10
2016-11-06T13:03:23.542Z,10
2016-11-06T13:04:23.829Z,10
2016-11-06T13:05:23.530Z,10
2016-11-06T13:06:23.540Z,10
2016-11-06T13:07:23.565Z,10
2016-11-06T13:08:23.613Z,10
2016-11-06T13:09:23.703Z,10
2016-11-06T13:10:23.605Z,5
2016-11-06T13:11:23.896Z,5
2016-11-06T13:12:23.649Z,5
2016-11-06T13:13:23.669Z,5
2016-11-06T13:14:23.861Z,5
2016-11-06T13:15:23.694Z,5
2016-11-06T13:16:23.720Z,5
2016-11-06T13:17:23.732Z,5
2016-11-06T13:18:23.744Z,5
2016-11-06T13:19:23.781Z,5
2016-11-06T13:20:23.790Z,5
2016-11-06T13:21:23.802Z,10
2016-11-06T13:22:23.827Z,10
2016-11-06T13:23:23.840Z,10
2016-11-06T13:24:23.854Z,10
2016-11-06T13:25:23.951Z,10
2016-11-06T13:26:23.885Z,15
2016-11-06T13:27:23.897Z,15
2016-11-06T13:28:23.926Z,15
2016-11-06T13:29:23.939Z,15
2016-11-06T13:30:23.959Z,15
2016-11-06T13:31:23.975Z,15
2016-11-06T13:32:23.988Z,15
2016-11-06T13:33:24.009Z,15
2016-11-06T13:34:24.030Z,20
2016-11-06T13:35:24.042Z,15
2016-11-06T13:36:24.075Z,15
2016-11-06T13:37:24.079Z,15
2016-11-06T13:38:24.406Z,10
2016-11-06T13:39:24.111Z,10
2016-11-06T13:40:24.130Z,10
2016-11-06T13:41:24.147Z,15
2016-11-06T13:42:24.159Z,15
2016-11-06T13:43:24.183Z,10
2016-11-06T13:44:24.192Z,10
2016-11-06T13:45:24.212Z,5
2016-11-06T13:46:24.229Z,5
2016-11-06T13:47:24.253Z,5
2016-11-06T13:48:24.266Z,5
2016-11-06T13:49:24.320Z,5
2016-11-06T13:50:24.303Z,10
2016-11-06T13:51:24.318Z,10
2016-11-06T13:52:24.338Z,15
2016-11-06T13:53:24.347Z,10
2016-11-06T13:54:24.370Z,10
2016-11-06T13:55:24.393Z,15
2016-11-06T13:56:24.724Z,10
2016-11-06T13:57:24.428Z,10
2016-11-06T13:58:24.443Z,10
2016-11-06T13:59:24.457Z,10
2016-11-06T14:00:24.472Z,10
2016-11-06T14:01:24.495Z,10
2016-11-06T14:02:24.543Z,10
2016-11-06T14:03:24.525Z,10
2016-11-06T14:04:24.545Z,10
2016-11-06T14:05:24.562Z,10
2016-11-06T14:06:24.571Z,5
2016-11-06T14:07:24.608Z,10
2016-11-06T14:08:24.649Z,15
2016-11-06T14:09:24.631Z,15
2016-11-06T14:10:24.637Z,10
2016-11-06T14:11:24.826Z,10
2016-11-06T14:12:24.790Z,10
2016-11-06T14:13:24.804Z,10
2016-11-06T14:14:24.809Z,10
2016-11-06T14:15:24.828Z,5
2016-11-06T14:16:24.862Z,5
2016-11-06T14:17:24.861Z,5
2016-11-06T14:18:24.995Z,5
2016-11-06T14:19:25.024Z,10
2016-11-06T14:20:25.040Z,5
2016-11-06T14:21:25.036Z,5
2016-11-06T14:22:24.994Z,5
2016-11-06T14:23:25.014Z,5
2016-11-06T14:24:24.881Z,10
2016-11-06T14:25:24.904Z,10
2016-11-06T14:26:25.134Z,5
2016-11-06T14:27:25.144Z,5
2016-11-06T14:28:25.205Z,5
2016-11-06T14:29:25.158Z,5
2016-11-06T14:30:25.171Z,5
2016-11-06T14:31:25.163Z,5
2016-11-06T14:32:25.166Z,5
2016-11-06T14:33:25.160Z,5
2016-11-06T14:34:25.176Z,5